Current Metar reports for airports in our Region

Nearby METAR Reports

Metar reports are mainly used by pilots for information on what is happening at their destination during their pre-flight weather briefings and by meteorologists to assist in short term forecasts. A raw Metar is one of the most universal ways to communicate weather information in the world and are usually transmitted by airports, but some come from permanent sanctioned weather observatories.

Listed below are Metars from airports within 100 miles of our station here in Smethport Pa. The first one of course is the Bradford Regional Airport, then the Olean NY airport and so on. Each airport has it's own table to display it's data and at the bottom of the table is 'Raw' Metar for each airport. Most pilots and weather forecasters can look at the raw data and tell you what is up, but we use a script that handles all of the details for us.

KBFD - Bradford, Pennsylvania, USA
Distance from station: NW 7mi, 11km
Updated: Sun, 17-Jun-2018 8:53pm EDT
Clear
Clear
 Wind from calm
Wind: Calm
Temperature: 77°F , 25°C
Dew Point: 64°F , 18°C
Humidity: 65%
Barometer: 30.10 inHg , 1019.3 hPa
Clouds: Clear
Visibility: 10 miles , 16 km
2018/06/18 00:53 KBFD 180053Z AUTO 00000KT 10SM CLR 25/18 A3010 RMK AO2 SLP174 T02500178
KOLE - Olean, New York, USA
Distance from station: NNE 37mi, 59km
Updated: Sun, 17-Jun-2018 9:35pm EDT
Clear
Clear
 Wind from SSW
Wind: SSW 5 mph , 7 km/h
Temperature: 73°F , 23°C
Dew Point: 63°F , 17°C
Humidity: 69%
Barometer: 30.09 inHg , 1019 hPa
Clouds: Clear
Visibility: 10 miles , 16 km
2018/06/18 01:35 KOLE 180135Z AUTO 20004KT 10SM CLR 23/17 A3009 RMK AO2
 
KELZ - Wellsville, New York, USA
Distance from station: NE 40mi, 64km
Updated: Sun, 17-Jun-2018 8:56pm EDT
Clear
Clear
 Wind from WSW
Wind: WSW 6 mph , 9 km/h
Temperature: 77°F , 25°C
Dew Point: 64°F , 18°C
Humidity: 65%
Barometer: 30.10 inHg , 1019.3 hPa
Clouds: Clear
Visibility: 10 miles , 16 km
2018/06/18 00:56 KELZ 180056Z AUTO 25005KT 10SM CLR 25/18 A3010 RMK AO2 SLP179 T02500178
KDUJ - Du Bois, Pennsylvania, USA
Distance from station: SSW 42mi, 68km
Updated: Sun, 17-Jun-2018 8:53pm EDT
Clear
Clear
 Wind from SSW
Wind: SSW 3 mph , 6 km/h
Temperature: 73°F , 23°C
Dew Point: 66°F , 19°C
Humidity: 78%
Barometer: 30.09 inHg , 1019 hPa
Clouds: Clear
Visibility: 10 miles , 16 km
2018/06/18 00:53 KDUJ 180053Z AUTO 21003KT 10SM CLR 23/19 A3009 RMK AO2 SLP176 T02330194
 
KJHW - Jamestown, New York, USA
Distance from station: NW 46mi, 75km
Updated: Sun, 17-Jun-2018 8:56pm EDT
Clear
Clear
 Wind from SSW
Wind: SSW 6 mph , 9 km/h
Temperature: 75°F , 24°C
Dew Point: 64°F , 18°C
Humidity: 69%
Barometer: 30.07 inHg , 1018.3 hPa
Clouds: Clear
Visibility: 10 miles , 16 km
2018/06/18 00:56 KJHW 180056Z AUTO 20005KT 10SM CLR 24/18 A3007 RMK AO2 SLP175 T02440178
KFIG - Clearfield, Pennsylvania, USA
Distance from station: S 47mi, 75km
Updated: Sun, 17-Jun-2018 8:54pm EDT
Clear
Clear
 Wind from SW
Wind: SW 3 mph , 6 km/h
Temperature: 79°F , 26°C
Dew Point: 66°F , 19°C
Humidity: 65%
Barometer: 30.08 inHg , 1018.6 hPa
Clouds: Clear
Visibility: 10 miles , 16 km
2018/06/18 00:54 KFIG 180054Z AUTO 23003KT 10SM CLR 26/19 A3008 RMK AO2 SLP176 T02560189
 
KDKK - Dunkirk, New York, USA
Distance from station: NW 66mi, 106km
Updated: Sun, 17-Jun-2018 8:53pm EDT
Clear
Clear
 Wind from S
Wind: S 3 mph , 6 km/h
Temperature: 73°F , 23°C
Dew Point: 68°F , 20°C
Humidity: 83%
Barometer: 29.99 inHg , 1015.6 hPa
Clouds: Clear
Visibility: 10 miles , 16 km
2018/06/18 00:53 KDKK 180053Z AUTO 19003KT 10SM CLR 23/20 A2999 RMK AO2 SLP150 T02330200
KUNV - State College, Pennsylvania, USA
Distance from station: SSE 71mi, 114km
Updated: Sun, 17-Jun-2018 8:53pm EDT
Clear
Clear
 Wind from SSW
Wind: SSW 3 mph , 6 km/h
Temperature: 77°F , 25°C
Dew Point: 68°F , 20°C
Humidity: 74%
Barometer: 30.07 inHg , 1018.3 hPa
Clouds: Clear
Visibility: 10 miles , 16 km
2018/06/18 00:53 KUNV 180053Z 20003KT 10SM SKC 25/20 A3007
 
KFKL - Franklin, Pennsylvania, USA
Distance from station: WSW 72mi, 116km
Updated: Sun, 17-Jun-2018 8:56pm EDT
Clear
Clear
 Wind from SSE
Wind: SSE 5 mph , 7 km/h
Temperature: 79°F , 26°C
Dew Point: 66°F , 19°C
Humidity: 65%
Barometer: 30.08 inHg , 1018.6 hPa
Clouds: Clear
Visibility: 10 miles , 16 km
2018/06/18 00:56 KFKL 180056Z AUTO 16004KT 10SM CLR 26/19 A3008 RMK AO2 SLP175 T02610189
KDSV - Dansville, New York, USA
Distance from station: NE 73mi, 117km
Updated: Sun, 17-Jun-2018 8:54pm EDT
Clear
Clear
 Wind from SSE
Wind: SSE 5 mph , 7 km/h
Temperature: 81°F , 27°C
Heat Index: 83°F , 28°C
Dew Point: 66°F , 19°C
Humidity: 62%
Barometer: 30.00 inHg , 1015.9 hPa
Clouds: Clear
Visibility: 10 miles , 16 km
2018/06/18 00:54 KDSV 180054Z AUTO 16004KT 10SM CLR 27/19 A3000 RMK AO2 SLP162 T02670189 $
 
KIDI - Indiana/Stewart, Pennsylvania, USA
Distance from station: SSW 81mi, 130km
Updated: Sun, 17-Jun-2018 9:35pm EDT
Clear
Clear
 Wind from calm
Wind: Calm
Temperature: 73°F , 23°C
Dew Point: 72°F , 22°C
Humidity: 94%
Barometer: 30.12 inHg , 1020 hPa
Clouds: Clear
Visibility: 10 miles , 16 km
2018/06/18 01:35 KIDI 180135Z AUTO 00000KT 10SM CLR 23/22 A3012 RMK A01
KBUF - Buffalo/Cheektow, New York, USA
Distance from station: N 84mi, 136km
Updated: Sun, 17-Jun-2018 8:54pm EDT
Mostly Cloudy
Mostly Cloudy
 Wind from SSW
Wind: SSW 8 mph , 13 km/h
Temperature: 77°F , 25°C
Dew Point: 61°F , 16°C
Humidity: 57%
Barometer: 29.98 inHg , 1015.2 hPa
Clouds: Mostly Cloudy
Visibility: 10 miles , 16 km
Cloud details: Mostly Cloudy 25000 ft
2018/06/18 00:54 KBUF 180054Z 21007KT 10SM BKN250 25/16 A2998 RMK AO2 SLP147 T02500161
 
KGKJ - Meadville, Pennsylvania, USA
Distance from station: W 86mi, 138km
Updated: Sun, 17-Jun-2018 8:53pm EDT
Clear
Clear
 Wind from calm
Wind: Calm
Temperature: 81°F , 27°C
Heat Index: 85°F , 29°C
Dew Point: 70°F , 21°C
Humidity: 70%
Barometer: 30.05 inHg , 1017.6 hPa
Clouds: Clear
Visibility: 10 miles , 16 km
2018/06/18 00:53 KGKJ 180053Z AUTO 00000KT 10SM CLR 27/21 A3005 RMK AO2 SLP164 T02720206 $
KERI - Erie, Pennsylvania, USA
Distance from station: WNW 87mi, 140km
Updated: Sun, 17-Jun-2018 8:51pm EDT
Clear
Clear
 Wind from SSW
Wind: SSW 3 mph , 6 km/h
Temperature: 84°F , 29°C
Heat Index: 88°F , 31°C
Dew Point: 70°F , 21°C
Humidity: 62%
Barometer: 30.00 inHg , 1015.9 hPa
Clouds: Clear
Visibility: 10 miles , 16 km
2018/06/18 00:51 KERI 180051Z 20003KT 10SM CLR 29/21 A3000 RMK AO2 SLP153 T02890211
 
KELM - Elmira, New York, USA
Distance from station: ENE 90mi, 145km
Updated: Sun, 17-Jun-2018 8:53pm EDT
Clear
Clear
 Wind from WNW
Wind: WNW 5 mph , 7 km/h
Temperature: 75°F , 24°C
Dew Point: 68°F , 20°C
Humidity: 78%
Barometer: 30.01 inHg , 1016.3 hPa
Clouds: Clear
Visibility: 10 miles , 16 km
2018/06/18 00:53 KELM 180053Z 30004KT 10SM CLR 24/20 A3001 RMK AO2 SLP157 T02390200
KIPT - Williamsport, Pennsylvania, USA
Distance from station: ESE 91mi, 146km
Updated: Sun, 17-Jun-2018 8:54pm EDT
Clear
Clear
 Wind from S
Wind: S 8 mph , 13 km/h
Temperature: 82°F , 28°C
Heat Index: 84°F , 29°C
Dew Point: 64°F , 18°C
Humidity: 55%
Barometer: 30.01 inHg , 1016.3 hPa
Clouds: Clear
Visibility: 10 miles , 16 km
2018/06/18 00:54 KIPT 180054Z 18007KT 10SM CLR 28/18 A3001 RMK AO2 SLP157 T02830183
 
KBTP - Butler Co., Pennsylvania, USA
Distance from station: SW 98mi, 157km
Updated: Sun, 17-Jun-2018 8:56pm EDT
Clear
Clear
 Wind from SSE
Wind: SSE 3 mph , 6 km/h
Temperature: 81°F , 27°C
Heat Index: 85°F , 29°C
Dew Point: 70°F , 21°C
Humidity: 70%
Barometer: 30.07 inHg , 1018.3 hPa
Clouds: Clear
Visibility: 10 miles , 16 km
2018/06/18 00:56 KBTP 180056Z AUTO 15003KT 10SM CLR 27/21 A3007 RMK AO2 SLP177 T02670206
KAOO - Altoona, Pennsylvania, USA
Distance from station: S 99mi, 159km
Updated: Sun, 17-Jun-2018 8:53pm EDT
Mostly Cloudy
Mostly Cloudy
 Wind from calm
Wind: Calm
Temperature: 81°F , 27°C
Heat Index: 85°F , 29°C
Dew Point: 70°F , 21°C
Humidity: 70%
Barometer: 30.10 inHg , 1019.3 hPa
Clouds: Mostly Cloudy
Visibility: 10 miles , 16 km
Cloud details: Partly Cloudy 4400 ft
Mostly Cloudy 5500 ft
2018/06/18 00:53 KAOO 180053Z AUTO 00000KT 10SM SCT044 BKN055 27/21 A3010 RMK AO2 SLP180 T02670206
 
KPIT - Pittsburg, Pennsylvania, USA
Distance from station: SSW 126mi, 203km
Updated: Sun, 17-Jun-2018 8:51pm EDT
Partly Cloudy
Partly Cloudy
 Wind from S
Wind: S 3 mph , 6 km/h
Temperature: 84°F , 29°C
Heat Index: 88°F , 31°C
Dew Point: 70°F , 21°C
Humidity: 62%
Barometer: 30.06 inHg , 1017.9 hPa
Clouds: Partly Cloudy
Visibility: 10 miles , 16 km
Cloud details: Few Clouds 5000 ft
Partly Cloudy 25000 ft
2018/06/18 00:51 KPIT 180051Z 19003KT 10SM FEW050 SCT250 29/21 A3006 RMK AO2 SLP175 T02890206
KCLE - Cleveland, Ohio, USA
Distance from station: WSW 160mi, 258km
Updated: Sun, 17-Jun-2018 8:51pm EDT
Few Clouds
Few Clouds
 Wind from SSW
Wind: SSW 8 mph , 13 km/h
Temperature: 88°F , 31°C
Heat Index: 93°F , 34°C
Dew Point: 70°F , 21°C
Humidity: 55%
Barometer: 30.01 inHg , 1016.3 hPa
Clouds: Few Clouds
Visibility: 10 miles , 16 km
Cloud details: Few Clouds 25000 ft
2018/06/18 00:51 KCLE 180051Z 21007KT 10SM FEW250 31/21 A3001 RMK AO2 SLP155 T03110206 $